createdAt,value
2018-04-01T00:01:04.884Z,96500.27
2018-04-01T00:02:09.472Z,96499.06
2018-04-01T00:03:14.180Z,96497.81
2018-04-01T00:04:18.684Z,96497.88
2018-04-01T00:05:23.122Z,96495.42
2018-04-01T00:06:27.614Z,96498.55
2018-04-01T00:07:31.888Z,96493.02
2018-04-01T00:08:36.363Z,96493.63
2018-04-01T00:09:40.746Z,96488.03
2018-04-01T00:10:45.289Z,96491.38
2018-04-01T00:11:50.313Z,96487.87
2018-04-01T00:12:54.596Z,96484.47
2018-04-01T00:13:58.898Z,96486.11
2018-04-01T00:15:04.035Z,96487.06
2018-04-01T00:16:08.290Z,96485.91
2018-04-01T00:17:12.958Z,96487.85
2018-04-01T00:18:17.555Z,96481.28
2018-04-01T00:19:22.405Z,96486.50
2018-04-01T00:20:26.883Z,96488.16
2018-04-01T00:21:31.394Z,96490.88
2018-04-01T00:22:35.947Z,96490.08
2018-04-01T00:23:40.619Z,96494.63
2018-04-01T00:24:45.085Z,96497.05
2018-04-01T00:25:49.439Z,96500.22
2018-04-01T00:26:53.744Z,96498.38
2018-04-01T00:27:58.151Z,96500.55
2018-04-01T00:29:02.788Z,96506.38
2018-04-01T00:30:07.363Z,96501.94
2018-04-01T00:31:11.841Z,96505.41
2018-04-01T00:32:16.332Z,96515.84
2018-04-01T00:33:20.785Z,96510.36
2018-04-01T00:34:25.350Z,96508.81
2018-04-01T00:35:29.715Z,96517.00
2018-04-01T00:36:34.755Z,96520.38
2018-04-01T00:37:39.983Z,96516.64
2018-04-01T00:38:44.292Z,96512.32
2018-04-01T00:39:48.555Z,96517.27
2018-04-01T00:40:53.070Z,96517.17
2018-04-01T00:41:57.277Z,96517.77
2018-04-01T00:43:01.920Z,96522.25
2018-04-01T00:44:06.900Z,96522.20
2018-04-01T00:45:11.234Z,96521.41
2018-04-01T00:46:15.648Z,96523.41
2018-04-01T00:47:20.271Z,96523.80
2018-04-01T00:48:25.019Z,96523.65
2018-04-01T00:49:29.652Z,96516.16
2018-04-01T00:50:34.256Z,96525.04
2018-04-01T00:51:38.694Z,96520.50
2018-04-01T00:52:43.122Z,96522.52
2018-04-01T00:53:47.655Z,96515.06
2018-04-01T00:54:52.246Z,96518.55
2018-04-01T00:55:56.918Z,96512.94
2018-04-01T00:57:01.482Z,96517.48
2018-04-01T00:58:05.964Z,96526.59
2018-04-01T00:59:10.363Z,96529.45
2018-04-01T01:00:14.881Z,96528.36
2018-04-01T01:01:21.588Z,96526.70
2018-04-01T01:02:26.140Z,96526.22
2018-04-01T01:03:30.673Z,96533.91
2018-04-01T01:04:35.702Z,96527.17
2018-04-01T01:05:40.594Z,96526.91
2018-04-01T01:06:46.129Z,96530.73
2018-04-01T01:07:50.551Z,96533.84
2018-04-01T01:08:55.348Z,96531.58
2018-04-01T01:10:00.908Z,96530.19
2018-04-01T01:11:05.733Z,96532.99
2018-04-01T01:12:10.508Z,96530.91
2018-04-01T01:13:14.826Z,96531.48
2018-04-01T01:14:19.471Z,96530.41
2018-04-01T01:15:24.768Z,96522.23
2018-04-01T01:16:29.587Z,96529.16
2018-04-01T01:17:33.892Z,96533.75
2018-04-01T01:18:38.440Z,96536.08
2018-04-01T01:19:42.928Z,96531.28
2018-04-01T01:20:47.322Z,96531.30
2018-04-01T01:21:52.183Z,96531.20
2018-04-01T01:22:56.559Z,96526.55
2018-04-01T01:24:00.921Z,96527.30
2018-04-01T01:25:05.684Z,96518.81
2018-04-01T01:26:10.372Z,96525.02
2018-04-01T01:27:15.147Z,96515.34
2018-04-01T01:28:20.197Z,96520.56
2018-04-01T01:29:24.751Z,96518.95
2018-04-01T01:30:29.186Z,96519.95
2018-04-01T01:31:33.570Z,96523.36
2018-04-01T01:32:38.505Z,96518.37
2018-04-01T01:33:43.375Z,96522.05
2018-04-01T01:34:48.202Z,96507.70
2018-04-01T01:35:52.612Z,96511.66
2018-04-01T01:36:57.433Z,96513.11
2018-04-01T01:38:02.006Z,96513.52
2018-04-01T01:39:06.684Z,96506.39
2018-04-01T01:40:11.260Z,96508.74
2018-04-01T01:41:16.174Z,96506.30
2018-04-01T01:42:20.627Z,96506.00
2018-04-01T01:43:25.199Z,96516.28
2018-04-01T01:44:29.836Z,96510.55
2018-04-01T01:45:34.505Z,96515.87
2018-04-01T01:46:39.265Z,96517.52
2018-04-01T01:47:44.067Z,96516.75
2018-04-01T01:48:48.293Z,96516.36
2018-04-01T01:49:52.844Z,96520.31
2018-04-01T01:50:57.461Z,96516.03
2018-04-01T01:52:01.984Z,96520.72
2018-04-01T01:53:06.637Z,96518.81
2018-04-01T01:54:11.208Z,96523.38
2018-04-01T01:55:15.854Z,96528.80
2018-04-01T01:56:20.388Z,96522.67
2018-04-01T01:57:25.128Z,96527.57
2018-04-01T01:58:29.572Z,96530.27
2018-04-01T01:59:34.346Z,96531.34
2018-04-01T02:00:39.265Z,96528.55
2018-04-01T02:01:43.814Z,96531.47
2018-04-01T02:02:48.405Z,96535.88
2018-04-01T02:03:53.128Z,96526.42
2018-04-01T02:04:57.520Z,96528.50
2018-04-01T02:06:02.422Z,96527.86
2018-04-01T02:07:07.016Z,96532.72
2018-04-01T02:08:11.459Z,96530.89
2018-04-01T02:09:16.079Z,96533.39
2018-04-01T02:10:20.453Z,96527.34
2018-04-01T02:11:24.845Z,96530.64
2018-04-01T02:12:29.768Z,96532.91
2018-04-01T02:13:34.332Z,96528.91
2018-04-01T02:14:38.796Z,96529.93
2018-04-01T02:15:43.160Z,96524.50
2018-04-01T02:16:47.697Z,96528.66
2018-04-01T02:17:52.208Z,96531.02
2018-04-01T02:18:57.738Z,96536.59
2018-04-01T02:20:01.784Z,96528.16
2018-04-01T02:21:06.057Z,96535.30
2018-04-01T02:22:10.767Z,96532.63
2018-04-01T02:23:15.110Z,96536.27
2018-04-01T02:24:19.282Z,96530.80
2018-04-01T02:25:23.546Z,96532.73
2018-04-01T02:26:28.197Z,96534.70
2018-04-01T02:27:32.889Z,96540.81
2018-04-01T02:28:37.473Z,96532.09
2018-04-01T02:29:42.134Z,96538.69
2018-04-01T02:30:46.391Z,96536.52
2018-04-01T02:31:50.995Z,96536.03
2018-04-01T02:32:55.345Z,96541.63
2018-04-01T02:34:00.018Z,96540.95
2018-04-01T02:35:04.468Z,96542.75
2018-04-01T02:36:09.147Z,96542.66
2018-04-01T02:37:13.518Z,96540.25
2018-04-01T02:38:18.297Z,96543.99
2018-04-01T02:39:22.263Z,96543.98
2018-04-01T02:40:26.644Z,96547.77
2018-04-01T02:41:31.341Z,96547.09
2018-04-01T02:42:35.481Z,96548.20
2018-04-01T02:43:39.694Z,96546.55
2018-04-01T02:44:44.164Z,96553.32
2018-04-01T02:45:48.635Z,96548.52
2018-04-01T02:46:53.022Z,96551.67
2018-04-01T02:47:58.341Z,96544.38
2018-04-01T02:49:02.769Z,96551.19
2018-04-01T02:50:07.073Z,96549.42
2018-04-01T02:51:11.763Z,96552.47
2018-04-01T02:52:16.591Z,96553.19
2018-04-01T02:53:20.513Z,96553.63
2018-04-01T02:54:24.585Z,96551.36
2018-04-01T02:55:28.811Z,96549.63
2018-04-01T02:56:33.342Z,96553.23
2018-04-01T02:57:38.118Z,96554.70
2018-04-01T02:58:42.722Z,96550.20
2018-04-01T02:59:47.063Z,96544.33
2018-04-01T03:00:51.187Z,96553.32
2018-04-01T03:01:55.607Z,96554.70
2018-04-01T03:02:59.688Z,96557.41
2018-04-01T03:04:04.587Z,96548.76
2018-04-01T03:05:08.780Z,96552.38
2018-04-01T03:06:13.288Z,96553.27
2018-04-01T03:07:17.495Z,96552.47
2018-04-01T03:08:21.747Z,96556.34
2018-04-01T03:09:25.808Z,96553.31
2018-04-01T03:10:30.177Z,96551.67
2018-04-01T03:11:35.077Z,96560.75
2018-04-01T03:12:39.407Z,96557.68
2018-04-01T03:13:43.448Z,96561.77
2018-04-01T03:14:47.705Z,96559.77
2018-04-01T03:15:51.618Z,96557.19
2018-04-01T03:16:56.133Z,96562.09
2018-04-01T03:18:00.322Z,96557.50
2018-04-01T03:19:04.236Z,96560.44
2018-04-01T03:20:08.150Z,96563.05
2018-04-01T03:21:12.407Z,96562.31
2018-04-01T03:22:16.664Z,96565.59
2018-04-01T03:23:22.311Z,96562.66
2018-04-01T03:24:26.622Z,96561.33
2018-04-01T03:25:30.748Z,96560.66
2018-04-01T03:26:34.573Z,96554.33
2018-04-01T03:27:38.765Z,96565.45
2018-04-01T03:28:43.079Z,96561.50
2018-04-01T03:29:48.200Z,96560.88
2018-04-01T03:30:52.440Z,96558.03
2018-04-01T03:31:56.328Z,96557.06
2018-04-01T03:33:00.226Z,96558.13
2018-04-01T03:34:04.224Z,96555.32
2018-04-01T03:35:08.144Z,96558.44
2018-04-01T03:36:12.460Z,96559.10
2018-04-01T03:37:16.616Z,96554.66
2018-04-01T03:38:20.495Z,96557.02
2018-04-01T03:39:24.820Z,96551.81
2018-04-01T03:40:29.202Z,96554.31
2018-04-01T03:41:33.183Z,96567.02
2018-04-01T03:42:37.996Z,96562.05
2018-04-01T03:43:41.928Z,96563.96
2018-04-01T03:44:45.807Z,96559.38
2018-04-01T03:45:49.790Z,96555.06
2018-04-01T03:46:54.135Z,96558.88
2018-04-01T03:47:58.277Z,96563.70
2018-04-01T03:49:02.859Z,96568.91
2018-04-01T03:50:07.198Z,96565.70
2018-04-01T03:51:11.222Z,96569.69
2018-04-01T03:52:15.134Z,96561.64
2018-04-01T03:53:19.069Z,96558.70
2018-04-01T03:54:22.936Z,96560.61
2018-04-01T03:55:27.307Z,96563.96
2018-04-01T03:56:31.470Z,96558.92
2018-04-01T03:57:35.414Z,96555.51
2018-04-01T03:58:39.370Z,96558.26
2018-04-01T03:59:43.264Z,96564.17
2018-04-01T04:00:47.620Z,96559.37
2018-04-01T04:01:52.259Z,96561.80
2018-04-01T04:02:56.267Z,96561.89
2018-04-01T04:04:00.466Z,96561.30
2018-04-01T04:05:04.896Z,96558.69
2018-04-01T04:06:09.116Z,96556.47
2018-04-01T04:07:14.217Z,96562.52
2018-04-01T04:08:19.410Z,96566.16
2018-04-01T04:09:23.423Z,96569.55
2018-04-01T04:10:27.339Z,96570.16
2018-04-01T04:11:31.369Z,96575.28
2018-04-01T04:12:35.487Z,96574.52
2018-04-01T04:13:39.567Z,96581.70
2018-04-01T04:14:43.765Z,96577.95
2018-04-01T04:15:47.881Z,96576.84
2018-04-01T04:16:51.784Z,96575.54
2018-04-01T04:17:55.858Z,96578.64
2018-04-01T04:18:59.646Z,96579.25
2018-04-01T04:20:03.499Z,96577.59
2018-04-01T04:21:07.693Z,96583.16
2018-04-01T04:22:11.575Z,96577.81
2018-04-01T04:23:15.330Z,96579.76
2018-04-01T04:24:19.321Z,96580.12
2018-04-01T04:25:23.120Z,96583.47
2018-04-01T04:26:26.897Z,96588.94
2018-04-01T04:27:31.179Z,96584.23
2018-04-01T04:28:35.085Z,96589.48
2018-04-01T04:29:38.989Z,96592.33
2018-04-01T04:30:42.927Z,96589.39
2018-04-01T04:31:46.948Z,96598.19
2018-04-01T04:32:50.975Z,96596.73
2018-04-01T04:33:55.196Z,96595.98
2018-04-01T04:34:59.092Z,96591.52
2018-04-01T04:36:03.006Z,96599.67
2018-04-01T04:37:06.958Z,96595.98
2018-04-01T04:38:10.899Z,96597.75
2018-04-01T04:39:14.860Z,96595.16
2018-04-01T04:40:19.099Z,96594.97
2018-04-01T04:41:23.141Z,96594.09
2018-04-01T04:42:27.151Z,96596.59
2018-04-01T04:43:31.312Z,96596.06
2018-04-01T04:44:35.222Z,96590.05
2018-04-01T04:45:39.192Z,96589.99
2018-04-01T04:46:43.358Z,96591.77
2018-04-01T04:47:47.325Z,96589.73
2018-04-01T04:48:51.918Z,96587.16
2018-04-01T04:49:55.954Z,96585.98
2018-04-01T04:50:59.852Z,96584.84
2018-04-01T04:52:04.801Z,96589.42
2018-04-01T04:53:09.194Z,96583.09
2018-04-01T04:54:13.158Z,96587.53
2018-04-01T04:55:17.148Z,96588.33
2018-04-01T04:56:20.984Z,96585.03
2018-04-01T04:57:24.990Z,96585.44
2018-04-01T04:58:28.911Z,96583.37
2018-04-01T04:59:33.116Z,96584.39
2018-04-01T05:00:37.913Z,96581.47
2018-04-01T05:01:42.816Z,96585.02
2018-04-01T05:02:47.535Z,96586.83
2018-04-01T05:03:51.534Z,96584.17
2018-04-01T05:04:55.703Z,96582.38
2018-04-01T05:06:00.022Z,96586.56
2018-04-01T05:07:03.937Z,96588.81
2018-04-01T05:08:07.966Z,96587.09
2018-04-01T05:09:12.380Z,96585.73
2018-04-01T05:10:16.268Z,96588.86
2018-04-01T05:11:20.229Z,96584.89
2018-04-01T05:12:25.425Z,96588.27
2018-04-01T05:13:29.660Z,96587.46
2018-04-01T05:14:33.770Z,96591.39
2018-04-01T05:15:37.943Z,96591.61
2018-04-01T05:16:41.881Z,96596.95
2018-04-01T05:17:46.045Z,96596.06
2018-04-01T05:18:50.503Z,96603.94
2018-04-01T05:19:54.599Z,96598.11
2018-04-01T05:20:59.364Z,96601.97
2018-04-01T05:22:03.722Z,96605.00
2018-04-01T05:23:07.920Z,96599.04
2018-04-01T05:24:12.098Z,96600.38
2018-04-01T05:25:16.368Z,96607.53
2018-04-01T05:26:20.648Z,96609.13
2018-04-01T05:27:24.885Z,96613.17
2018-04-01T05:28:28.960Z,96614.95
2018-04-01T05:29:32.825Z,96612.20
2018-04-01T05:30:39.616Z,96614.77
2018-04-01T05:31:44.053Z,96614.55
2018-04-01T05:32:48.091Z,96618.77
2018-04-01T05:33:52.717Z,96620.92
2018-04-01T05:34:57.003Z,96617.48
2018-04-01T05:36:01.172Z,96623.83
2018-04-01T05:37:06.508Z,96625.78
2018-04-01T05:38:10.761Z,96619.16
2018-04-01T05:39:15.297Z,96614.67
2018-04-01T05:40:19.400Z,96632.84
2018-04-01T05:41:23.858Z,96636.56
2018-04-01T05:42:27.937Z,96627.76
2018-04-01T05:43:32.068Z,96625.37
2018-04-01T05:44:36.298Z,96634.95
2018-04-01T05:45:40.613Z,96638.52
2018-04-01T05:46:44.603Z,96633.86
2018-04-01T05:47:48.407Z,96638.71
2018-04-01T05:48:52.542Z,96639.02
2018-04-01T05:49:56.583Z,96640.82
2018-04-01T05:51:00.867Z,96646.14
2018-04-01T05:52:05.217Z,96649.20
2018-04-01T05:53:09.776Z,96643.52
2018-04-01T05:54:14.062Z,96653.65
2018-04-01T05:55:18.105Z,96650.42
2018-04-01T05:56:22.393Z,96647.14
2018-04-01T05:57:27.037Z,96653.29
2018-04-01T05:58:31.459Z,96655.59
2018-04-01T05:59:35.568Z,96659.70
2018-04-01T06:00:39.958Z,96656.35
2018-04-01T06:01:44.414Z,96661.74
2018-04-01T06:02:48.929Z,96658.58
2018-04-01T06:03:53.908Z,96657.25
2018-04-01T06:04:57.887Z,96656.67
2018-04-01T06:06:02.157Z,96666.98
2018-04-01T06:07:06.810Z,96663.95
2018-04-01T06:08:11.152Z,96667.80
2018-04-01T06:09:15.872Z,96666.06
2018-04-01T06:10:20.595Z,96666.02
2018-04-01T06:11:25.522Z,96668.60
2018-04-01T06:12:30.399Z,96668.89
2018-04-01T06:13:35.061Z,96674.86
2018-04-01T06:14:39.248Z,96670.08
2018-04-01T06:15:43.886Z,96670.96
2018-04-01T06:16:49.174Z,96673.70
2018-04-01T06:17:53.794Z,96672.48
2018-04-01T06:18:58.344Z,96679.22
2018-04-01T06:20:02.602Z,96672.53
2018-04-01T06:21:07.120Z,96667.69
2018-04-01T06:22:11.707Z,96673.45
2018-04-01T06:23:16.951Z,96673.66
2018-04-01T06:24:21.495Z,96672.91
2018-04-01T06:25:26.208Z,96678.29
2018-04-01T06:26:31.706Z,96677.56
2018-04-01T06:27:36.168Z,96676.45
2018-04-01T06:28:40.742Z,96677.84
2018-04-01T06:29:45.368Z,96682.30
2018-04-01T06:30:50.008Z,96681.22
2018-04-01T06:31:54.646Z,96687.33
2018-04-01T06:32:59.209Z,96684.43
2018-04-01T06:34:03.907Z,96692.52
2018-04-01T06:35:08.404Z,96692.75
2018-04-01T06:36:12.818Z,96686.52
2018-04-01T06:37:17.150Z,96685.40
2018-04-01T06:38:21.488Z,96687.67
2018-04-01T06:39:25.985Z,96693.41
2018-04-01T06:40:30.672Z,96695.83
2018-04-01T06:41:35.662Z,96693.00
2018-04-01T06:42:39.975Z,96692.41
2018-04-01T06:43:44.429Z,96693.97
2018-04-01T06:44:49.263Z,96695.94
2018-04-01T06:45:53.780Z,96692.20
2018-04-01T06:46:58.806Z,96697.94
2018-04-01T06:48:03.350Z,96694.88
2018-04-01T06:49:07.679Z,96695.80
2018-04-01T06:50:12.757Z,96696.98
2018-04-01T06:51:17.593Z,96698.55
2018-04-01T06:52:22.243Z,96698.31
2018-04-01T06:53:26.667Z,96695.23
2018-04-01T06:54:31.459Z,96698.45
2018-04-01T06:55:36.431Z,96704.62
2018-04-01T06:56:41.066Z,96701.95
2018-04-01T06:57:45.639Z,96705.59
2018-04-01T06:58:50.090Z,96703.70
2018-04-01T06:59:54.590Z,96708.06
2018-04-01T07:00:59.658Z,96707.56
2018-04-01T07:02:04.237Z,96708.24
2018-04-01T07:03:08.734Z,96707.84
2018-04-01T07:04:14.488Z,96707.76
2018-04-01T07:05:19.981Z,96715.67
2018-04-01T07:06:25.603Z,96711.73
2018-04-01T07:07:31.842Z,96714.31
2018-04-01T07:08:37.545Z,96712.64
2018-04-01T07:09:42.855Z,96713.54
2018-04-01T07:10:48.472Z,96716.98
2018-04-01T07:11:53.373Z,96721.02
2018-04-01T07:12:58.347Z,96705.08
2018-04-01T07:14:04.654Z,96708.41
2018-04-01T07:15:09.374Z,96701.55
2018-04-01T07:16:17.167Z,96712.54
2018-04-01T07:17:21.751Z,96706.92
2018-04-01T07:18:26.531Z,96700.70
2018-04-01T07:19:31.679Z,96719.29
2018-04-01T07:20:37.593Z,96727.20
2018-04-01T07:21:43.183Z,96723.64
2018-04-01T07:22:48.133Z,96730.57
2018-04-01T07:23:53.535Z,96738.20
2018-04-01T07:24:58.932Z,96734.83
2018-04-01T07:26:03.849Z,96732.30
2018-04-01T07:27:09.334Z,96741.02
2018-04-01T07:28:15.851Z,96735.78
2018-04-01T07:29:21.273Z,96745.42
2018-04-01T07:30:26.284Z,96744.42
2018-04-01T07:31:31.752Z,96728.93
2018-04-01T07:32:37.357Z,96741.20
2018-04-01T07:33:42.282Z,96741.52
2018-04-01T07:34:46.834Z,96743.98
2018-04-01T07:35:51.840Z,96749.03
2018-04-01T07:36:57.501Z,96743.05
2018-04-01T07:38:02.753Z,96753.97
2018-04-01T07:39:07.745Z,96753.17
2018-04-01T07:40:12.841Z,96750.16
2018-04-01T07:41:17.257Z,96749.48
2018-04-01T07:42:21.746Z,96749.88
2018-04-01T07:43:26.207Z,96755.94
2018-04-01T07:44:30.955Z,96761.16
2018-04-01T07:45:35.372Z,96757.53
2018-04-01T07:46:40.477Z,96754.55
2018-04-01T07:47:46.517Z,96753.42
2018-04-01T07:48:50.960Z,96753.95
2018-04-01T07:49:55.289Z,96754.95
2018-04-01T07:50:59.756Z,96750.59
2018-04-01T07:52:05.533Z,96757.24
2018-04-01T07:53:11.279Z,96751.91
2018-04-01T07:54:15.883Z,96756.89
2018-04-01T07:55:20.436Z,96763.44
2018-04-01T07:56:26.043Z,96759.63
2018-04-01T07:57:31.665Z,96758.95
2018-04-01T07:58:36.149Z,96759.73
2018-04-01T07:59:41.069Z,96756.56
2018-04-01T08:00:47.098Z,96758.25
2018-04-01T08:01:53.264Z,96758.25
2018-04-01T08:02:59.190Z,96762.91
2018-04-01T08:04:04.671Z,96766.53
2018-04-01T08:05:10.000Z,96761.42
2018-04-01T08:06:14.921Z,96763.80
2018-04-01T08:07:19.931Z,96765.88
2018-04-01T08:08:25.559Z,96761.63
2018-04-01T08:09:30.706Z,96767.16
2018-04-01T08:10:36.458Z,96761.94
2018-04-01T08:11:41.193Z,96765.25
2018-04-01T08:12:46.559Z,96766.54
2018-04-01T08:13:51.896Z,96767.00
2018-04-01T08:14:56.727Z,96771.22
2018-04-01T08:16:03.302Z,96769.02
2018-04-01T08:17:09.107Z,96766.45
2018-04-01T08:18:14.481Z,96768.05
2018-04-01T08:19:20.182Z,96769.56
2018-04-01T08:20:25.810Z,96762.72
2018-04-01T08:21:32.422Z,96771.61
2018-04-01T08:22:38.111Z,96770.62
2018-04-01T08:23:44.235Z,96761.91
2018-04-01T08:24:52.606Z,96768.05
2018-04-01T08:25:57.469Z,96767.64
2018-04-01T08:27:02.464Z,96767.58
2018-04-01T08:28:06.772Z,96771.13
2018-04-01T08:29:11.498Z,96768.28
2018-04-01T08:30:16.337Z,96773.36
2018-04-01T08:31:20.935Z,96772.13
2018-04-01T08:32:26.950Z,96775.69
2018-04-01T08:33:33.143Z,96781.47
2018-04-01T08:34:38.670Z,96787.86
2018-04-01T08:35:43.820Z,96785.63
2018-04-01T08:36:49.102Z,96790.14
2018-04-01T08:37:53.655Z,96794.75
2018-04-01T08:38:58.062Z,96794.27
2018-04-01T08:40:02.374Z,96792.03
2018-04-01T08:41:06.832Z,96798.37
2018-04-01T08:42:11.018Z,96800.87
2018-04-01T08:43:15.881Z,96803.91
2018-04-01T08:44:20.116Z,96800.19
2018-04-01T08:45:25.225Z,96807.92
2018-04-01T08:46:30.691Z,96809.13
2018-04-01T08:47:35.345Z,96810.38
2018-04-01T08:48:39.743Z,96811.30
2018-04-01T08:49:44.998Z,96813.19
2018-04-01T08:50:50.496Z,96812.02
2018-04-01T08:51:56.291Z,96811.92
2018-04-01T08:53:00.497Z,96813.38
2018-04-01T08:54:07.871Z,96814.82
2018-04-01T08:55:12.187Z,96812.63
2018-04-01T08:56:16.348Z,96819.06
2018-04-01T08:57:21.164Z,96818.92
2018-04-01T08:58:25.731Z,96820.67
2018-04-01T08:59:29.888Z,96817.25
2018-04-01T09:00:34.219Z,96823.13
2018-04-01T09:01:38.485Z,96826.52
2018-04-01T09:02:43.648Z,96813.13
2018-04-01T09:03:48.591Z,96823.45
2018-04-01T09:04:53.560Z,96831.95
2018-04-01T09:05:59.395Z,96826.06
2018-04-01T09:07:04.589Z,96820.75
2018-04-01T09:08:09.212Z,96827.85
2018-04-01T09:09:13.763Z,96825.05
2018-04-01T09:10:19.755Z,96833.28
2018-04-01T09:11:25.261Z,96826.66
2018-04-01T09:12:30.454Z,96834.34
2018-04-01T09:13:35.688Z,96832.58
2018-04-01T09:14:41.832Z,96830.57
2018-04-01T09:15:47.550Z,96832.52
2018-04-01T09:16:52.865Z,96837.02
2018-04-01T09:17:58.444Z,96828.34
2018-04-01T09:19:03.774Z,96837.84
2018-04-01T09:20:09.229Z,96834.41
2018-04-01T09:21:14.269Z,96849.52
2018-04-01T09:22:19.676Z,96849.04
2018-04-01T09:23:24.367Z,96840.52
2018-04-01T09:24:29.358Z,96846.05
2018-04-01T09:25:33.891Z,96840.63
2018-04-01T09:26:38.362Z,96852.70
2018-04-01T09:27:42.812Z,96854.41
2018-04-01T09:28:47.558Z,96847.97
2018-04-01T09:29:51.913Z,96846.70
2018-04-01T09:30:56.491Z,96860.70
2018-04-01T09:32:00.980Z,96853.55
2018-04-01T09:33:06.194Z,96857.20
2018-04-01T09:34:10.897Z,96861.89
2018-04-01T09:35:16.841Z,96867.86
2018-04-01T09:36:21.269Z,96870.25
2018-04-01T09:37:25.995Z,96870.78
2018-04-01T09:38:31.512Z,96878.48
2018-04-01T09:39:37.200Z,96881.63
2018-04-01T09:40:43.285Z,96880.36
2018-04-01T09:41:48.369Z,96885.03
2018-04-01T09:42:53.855Z,96883.93
2018-04-01T09:43:59.257Z,96887.40
2018-04-01T09:45:04.527Z,96892.05
2018-04-01T09:46:09.115Z,96888.03
2018-04-01T09:47:14.057Z,96892.26
2018-04-01T09:48:18.638Z,96888.59
2018-04-01T09:49:22.852Z,96886.05
2018-04-01T09:50:27.105Z,96889.09
2018-04-01T09:51:31.450Z,96883.69
2018-04-01T09:52:35.811Z,96890.21
2018-04-01T09:53:40.366Z,96886.64
2018-04-01T09:54:45.365Z,96890.05
2018-04-01T09:55:50.778Z,96893.19
2018-04-01T09:56:55.990Z,96898.87
2018-04-01T09:58:00.789Z,96902.58
2018-04-01T09:59:06.090Z,96898.42
2018-04-01T10:00:12.010Z,96910.33
2018-04-01T10:01:19.195Z,96911.52
2018-04-01T10:02:25.301Z,96912.97
2018-04-01T10:03:31.514Z,96910.45
2018-04-01T10:04:37.055Z,96913.03
2018-04-01T10:05:42.207Z,96903.22
2018-04-01T10:06:48.083Z,96909.16
2018-04-01T10:07:53.545Z,96910.77
2018-04-01T10:08:58.587Z,96908.46
2018-04-01T10:10:04.802Z,96917.42
2018-04-01T10:11:10.226Z,96909.02
2018-04-01T10:12:15.552Z,96904.87
2018-04-01T10:13:21.268Z,96915.88
2018-04-01T10:14:26.741Z,96925.77
2018-04-01T10:15:32.067Z,96917.12
2018-04-01T10:16:37.389Z,96922.45
2018-04-01T10:17:42.598Z,96927.28
2018-04-01T10:18:48.028Z,96925.15
2018-04-01T10:19:54.053Z,96931.30
2018-04-01T10:20:59.205Z,96929.95
2018-04-01T10:22:04.829Z,96929.36
2018-04-01T10:23:10.255Z,96938.20
2018-04-01T10:24:16.536Z,96939.02
2018-04-01T10:25:21.943Z,96939.26
2018-04-01T10:26:27.652Z,96934.69
2018-04-01T10:27:32.942Z,96938.23
2018-04-01T10:28:38.577Z,96934.42
2018-04-01T10:29:43.611Z,96941.22
2018-04-01T10:30:49.251Z,96941.95
2018-04-01T10:31:54.530Z,96946.22
2018-04-01T10:33:00.889Z,96941.77
2018-04-01T10:34:06.427Z,96945.37
2018-04-01T10:35:11.828Z,96949.16
2018-04-01T10:36:16.993Z,96940.87
2018-04-01T10:37:22.200Z,96946.16
2018-04-01T10:38:27.660Z,96954.24
2018-04-01T10:39:34.117Z,96946.06
2018-04-01T10:40:40.336Z,96946.44
2018-04-01T10:41:45.539Z,96947.64
2018-04-01T10:42:50.637Z,96951.98
2018-04-01T10:43:55.726Z,96951.02
2018-04-01T10:45:00.945Z,96956.41
2018-04-01T10:46:06.870Z,96953.84
2018-04-01T10:47:12.410Z,96955.27
2018-04-01T10:48:18.495Z,96966.13
2018-04-01T10:49:23.862Z,96956.95
2018-04-01T10:50:29.374Z,96969.47
2018-04-01T10:51:35.684Z,96968.20
2018-04-01T10:52:41.204Z,96963.19
2018-04-01T10:53:50.570Z,96967.73
2018-04-01T10:54:54.950Z,96968.13
2018-04-01T10:55:59.315Z,96960.48
2018-04-01T10:57:03.484Z,96972.25
2018-04-01T10:58:07.648Z,96969.59
2018-04-01T10:59:12.450Z,96971.16
2018-04-01T11:00:17.176Z,96971.91
2018-04-01T11:01:21.656Z,96965.02
2018-04-01T11:02:26.889Z,96973.98
2018-04-01T11:03:30.993Z,96970.38
2018-04-01T11:04:35.237Z,96967.41
2018-04-01T11:05:40.118Z,96974.98
2018-04-01T11:06:44.380Z,96977.54
2018-04-01T11:07:48.561Z,96980.31
2018-04-01T11:08:52.549Z,96977.87
2018-04-01T11:09:56.847Z,96974.81
2018-04-01T11:11:03.116Z,96977.31
2018-04-01T11:12:08.109Z,96976.64
2018-04-01T11:13:12.399Z,96974.61
2018-04-01T11:14:17.040Z,96979.39
2018-04-01T11:15:21.323Z,96979.95
2018-04-01T11:16:26.910Z,96983.95
2018-04-01T11:17:31.576Z,96982.77
2018-04-01T11:18:36.708Z,96983.21
2018-04-01T11:19:42.309Z,96981.44
2018-04-01T11:20:47.404Z,96968.97
2018-04-01T11:21:51.911Z,96986.80
2018-04-01T11:22:56.459Z,96986.67
2018-04-01T11:24:00.903Z,96982.77
2018-04-01T11:25:05.542Z,96984.09
2018-04-01T11:26:09.836Z,96977.39
2018-04-01T11:27:14.154Z,96986.94
2018-04-01T11:28:18.330Z,96986.56
2018-04-01T11:29:22.527Z,96984.38
2018-04-01T11:30:26.893Z,96974.45
2018-04-01T11:31:32.580Z,96981.89
2018-04-01T11:32:37.408Z,96985.88
2018-04-01T11:33:42.635Z,96983.68
2018-04-01T11:34:48.255Z,96987.23
2018-04-01T11:35:52.992Z,96991.11
2018-04-01T11:36:57.454Z,96998.39
2018-04-01T11:38:02.319Z,97001.25
2018-04-01T11:39:06.625Z,97005.28
2018-04-01T11:40:10.721Z,96999.13
2018-04-01T11:41:14.825Z,97002.16
2018-04-01T11:42:21.758Z,96994.77
2018-04-01T11:43:26.345Z,97005.78
2018-04-01T11:44:31.190Z,97002.27
2018-04-01T11:45:35.553Z,97001.91
2018-04-01T11:46:39.771Z,97003.95
2018-04-01T11:47:43.865Z,97009.22
2018-04-01T11:48:48.164Z,97003.48
2018-04-01T11:49:53.448Z,97020.06
2018-04-01T11:50:57.855Z,97007.35
2018-04-01T11:52:02.395Z,97000.55
2018-04-01T11:53:06.913Z,97006.19
2018-04-01T11:54:11.438Z,97016.07
2018-04-01T11:55:15.734Z,97024.59
2018-04-01T11:56:20.205Z,97013.77
2018-04-01T11:57:24.288Z,97015.99
2018-04-01T11:58:28.500Z,97018.45
2018-04-01T11:59:32.981Z,97037.44
2018-04-01T12:00:37.239Z,97027.73
2018-04-01T12:01:41.793Z,97026.01
2018-04-01T12:02:48.048Z,97027.80
2018-04-01T12:03:52.758Z,97030.00
2018-04-01T12:04:57.814Z,97023.16
2018-04-01T12:06:04.062Z,97032.38
2018-04-01T12:07:09.538Z,97041.63
2018-04-01T12:08:15.054Z,97034.00
2018-04-01T12:09:20.406Z,97029.41
2018-04-01T12:10:25.874Z,97035.92
2018-04-01T12:11:31.427Z,97035.23
2018-04-01T12:12:36.715Z,97041.27
2018-04-01T12:13:41.458Z,97042.95
2018-04-01T12:14:45.883Z,97036.14
2018-04-01T12:15:50.567Z,97036.59
2018-04-01T12:16:55.413Z,97038.66
2018-04-01T12:17:59.574Z,97044.10
2018-04-01T12:19:03.893Z,97028.80
2018-04-01T12:20:08.292Z,97039.38
2018-04-01T12:21:12.584Z,97032.26
2018-04-01T12:22:17.206Z,97033.79
2018-04-01T12:23:21.423Z,97027.69
2018-04-01T12:24:28.781Z,97024.58
2018-04-01T12:25:33.087Z,97038.81
2018-04-01T12:26:37.774Z,97037.13
2018-04-01T12:27:42.137Z,97040.34
2018-04-01T12:28:47.262Z,97032.78
2018-04-01T12:29:51.666Z,97030.08
2018-04-01T12:30:55.775Z,97028.00
2018-04-01T12:32:00.263Z,97037.45
2018-04-01T12:33:04.282Z,97027.64
2018-04-01T12:34:08.793Z,97034.39
2018-04-01T12:35:13.430Z,97035.05
2018-04-01T12:36:17.563Z,97030.44
2018-04-01T12:37:21.661Z,97037.88
2018-04-01T12:38:25.802Z,97033.81
2018-04-01T12:39:30.197Z,97039.44
2018-04-01T12:40:35.621Z,97029.11